Time;durP1;ratioP1;P1;durP2;ratioP2;P2;SDS_P1;SDS_P2;PMS_P1;PMS_P2;Temp;Humidity;BMP_temperature;BMP_pressure;BME280_temperature;BME280_humidity;BME280_pressure;Samples;Min_cycle;Max_cycle;Signal;HPM_P1;HPM_P2
2022/08/07 00:02:07;;;;;;;1.63;1.30;;;15.10;96.30;;;;;;4993161;28;20459;-69
2022/08/07 00:04:35;;;;;;;1.30;1.20;;;15.10;96.30;;;;;;4991961;28;20479;-68
2022/08/07 00:07:01;;;;;;;1.27;1.10;;;15.00;96.30;;;;;;4992681;28;20498;-69
2022/08/07 00:09:28;;;;;;;1.63;1.03;;;15.00;96.50;;;;;;4992700;28;20541;-68
2022/08/07 00:11:55;;;;;;;1.43;1.33;;;15.00;96.40;;;;;;4992356;28;20930;-66
2022/08/07 00:14:22;;;;;;;1.30;1.10;;;14.90;96.60;;;;;;4992203;28;20471;-68
2022/08/07 00:16:50;;;;;;;1.47;1.20;;;14.90;96.40;;;;;;4992027;28;20491;-69
2022/08/07 00:19:16;;;;;;;2.40;1.17;;;14.90;96.30;;;;;;4992724;28;20459;-69
2022/08/07 00:21:44;;;;;;;1.20;1.07;;;14.90;96.40;;;;;;4992468;28;20469;-69
2022/08/07 00:24:11;;;;;;;1.73;1.40;;;14.90;96.50;;;;;;4990862;28;20462;-68
2022/08/07 00:26:38;;;;;;;1.53;1.00;;;14.80;97.10;;;;;;4992240;28;21129;-69
2022/08/07 00:29:05;;;;;;;1.40;1.30;;;14.80;96.60;;;;;;4992013;28;20463;-68
2022/08/07 00:31:31;;;;;;;1.97;1.57;;;14.80;96.80;;;;;;4992383;28;20892;-69
2022/08/07 00:33:58;;;;;;;1.60;1.40;;;14.70;97.20;;;;;;4991419;28;20469;-69
2022/08/07 00:36:25;;;;;;;1.47;1.20;;;14.70;97.00;;;;;;4992326;28;20490;-68
2022/08/07 00:38:52;;;;;;;1.10;1.00;;;14.70;96.80;;;;;;4992041;28;20477;-69
2022/08/07 00:41:26;;;;;;;1.40;1.13;;;14.70;97.20;;;;;;4991943;28;20459;-69
2022/08/07 00:43:53;;;;;;;1.70;1.20;;;14.60;97.00;;;;;;4991467;28;20573;-69
2022/08/07 00:46:22;;;;;;;1.50;1.40;;;14.60;97.00;;;;;;4991769;28;20486;-68
2022/08/07 00:48:49;;;;;;;1.50;1.30;;;14.60;97.20;;;;;;4991816;28;20517;-68
2022/08/07 00:51:15;;;;;;;1.33;1.20;;;14.60;97.40;;;;;;4992078;28;20561;-69
2022/08/07 00:53:42;;;;;;;1.63;1.40;;;14.60;97.20;;;;;;4991000;28;20958;-68
2022/08/07 00:56:11;;;;;;;1.10;1.00;;;14.50;97.20;;;;;;4991881;28;20538;-68
2022/08/07 00:58:41;;;;;;;2.40;1.57;;;14.50;97.10;;;;;;4991712;28;20470;-69
2022/08/07 01:01:08;;;;;;;1.40;1.30;;;14.50;96.90;;;;;;4992305;28;20459;-68
2022/08/07 01:03:35;;;;;;;1.30;1.20;;;14.40;96.70;;;;;;4990821;28;21008;-68
2022/08/07 01:06:02;;;;;;;1.67;1.30;;;14.40;96.90;;;;;;4991740;28;20505;-69
2022/08/07 01:08:29;;;;;;;1.93;1.60;;;14.30;96.90;;;;;;4991259;28;20561;-68
2022/08/07 01:10:56;;;;;;;1.60;1.20;;;14.30;97.10;;;;;;4991145;28;20486;-68
2022/08/07 01:13:24;;;;;;;2.03;1.40;;;14.20;97.10;;;;;;4991228;28;20470;-69
2022/08/07 01:15:52;;;;;;;1.43;1.23;;;14.20;97.20;;;;;;4990812;28;20474;-68
2022/08/07 01:18:19;;;;;;;1.20;1.10;;;14.20;97.20;;;;;;4991652;28;20466;-68
2022/08/07 01:20:52;;;;;;;1.40;1.30;;;14.20;97.30;;;;;;4991374;28;20458;-67
2022/08/07 01:23:21;;;;;;;1.53;1.43;;;14.10;97.20;;;;;;4990783;28;20462;-68
2022/08/07 01:25:48;;;;;;;1.67;1.37;;;14.10;97.40;;;;;;4991095;28;20886;-69
2022/08/07 01:28:15;;;;;;;1.87;1.30;;;14.10;97.40;;;;;;4991091;28;20878;-69
2022/08/07 01:30:43;;;;;;;1.60;1.40;;;14.10;97.50;;;;;;4991108;28;20487;-69
2022/08/07 01:33:10;;;;;;;2.50;1.83;;;14.00;97.60;;;;;;4991155;28;20454;-68
2022/08/07 01:35:37;;;;;;;1.57;1.30;;;14.00;97.50;;;;;;4990172;28;20470;-68
2022/08/07 01:38:04;;;;;;;1.70;1.30;;;14.00;97.50;;;;;;4991394;28;20471;-68
2022/08/07 01:40:33;;;;;;;1.80;1.70;;;14.00;97.70;;;;;;4990934;28;20455;-68
2022/08/07 01:43:00;;;;;;;1.57;1.47;;;14.00;97.70;;;;;;4991252;28;20467;-68
2022/08/07 01:45:28;;;;;;;1.60;1.33;;;14.00;97.60;;;;;;4990401;28;20449;-68
2022/08/07 01:47:55;;;;;;;1.60;1.33;;;14.00;97.60;;;;;;4991181;28;20544;-68
2022/08/07 01:50:22;;;;;;;2.43;1.40;;;13.90;97.70;;;;;;4991187;28;20487;-68
2022/08/07 01:52:52;;;;;;;1.87;1.77;;;13.90;97.70;;;;;;4990548;28;20555;-68
2022/08/07 01:55:22;;;;;;;2.77;1.77;;;13.80;97.80;;;;;;4990495;28;20498;-68
2022/08/07 01:57:53;;;;;;;1.30;1.20;;;13.90;97.90;;;;;;4990366;28;21371;-68
2022/08/07 02:00:20;;;;;;;2.20;1.77;;;13.80;98.00;;;;;;4991084;28;20493;-69
2022/08/07 02:02:54;;;;;;;1.60;1.50;;;13.80;97.90;;;;;;4990793;28;20467;-68
2022/08/07 02:05:29;;;;;;;2.13;1.50;;;13.80;98.40;;;;;;4990551;28;20466;-69
2022/08/07 02:07:57;;;;;;;2.23;1.60;;;13.80;98.30;;;;;;4990507;28;20498;-68
2022/08/07 02:10:26;;;;;;;1.67;1.40;;;13.70;98.20;;;;;;4990678;28;20487;-68
2022/08/07 02:12:58;;;;;;;2.27;1.93;;;13.70;98.20;;;;;;4990755;28;20958;-69
2022/08/07 02:15:27;;;;;;;1.73;1.53;;;13.70;98.20;;;;;;4990150;28;20470;-68
2022/08/07 02:17:55;;;;;;;1.53;1.43;;;13.70;98.30;;;;;;4990872;28;20891;-68
2022/08/07 02:20:23;;;;;;;1.80;1.60;;;13.60;98.40;;;;;;4990978;28;20454;-68
2022/08/07 02:22:52;;;;;;;3.27;1.87;;;13.60;98.40;;;;;;4990764;28;20466;-68
2022/08/07 02:25:21;;;;;;;2.03;1.50;;;13.60;98.50;;;;;;4991059;28;20470;-69
2022/08/07 02:27:49;;;;;;;1.87;1.67;;;13.60;98.50;;;;;;4990459;28;20491;-68
2022/08/07 02:30:18;;;;;;;1.50;1.40;;;13.60;98.80;;;;;;4990863;28;20486;-69
2022/08/07 02:32:46;;;;;;;1.43;1.33;;;13.60;98.80;;;;;;4990433;28;20514;-68
2022/08/07 02:35:17;;;;;;;2.13;1.60;;;13.60;98.70;;;;;;4990206;28;20467;-68
2022/08/07 02:37:45;;;;;;;2.50;1.90;;;13.60;98.40;;;;;;4990654;28;20493;-68
2022/08/07 02:40:12;;;;;;;1.30;1.13;;;13.60;98.50;;;;;;4990642;28;20871;-67
2022/08/07 02:42:40;;;;;;;1.60;1.33;;;13.60;98.50;;;;;;4990556;28;20470;-68
2022/08/07 02:45:11;;;;;;;1.77;1.53;;;13.60;98.50;;;;;;4989737;28;20470;-68
2022/08/07 02:47:39;;;;;;;4.00;1.43;;;13.60;98.70;;;;;;5024671;23;20919;-92
2022/08/07 02:50:07;;;;;;;2.53;1.43;;;13.50;98.60;;;;;;4999471;28;20494;-92
2022/08/07 02:52:37;;;;;;;2.73;1.83;;;13.50;98.60;;;;;;5000667;28;20655;-92
2022/08/07 02:55:07;;;;;;;2.23;1.70;;;13.50;98.70;;;;;;5001929;28;20453;-91
2022/08/07 02:57:37;;;;;;;1.80;1.67;;;13.40;98.70;;;;;;5000164;28;20483;-90
2022/08/07 03:00:05;;;;;;;1.40;1.30;;;13.40;98.80;;;;;;5000901;28;20491;-91
2022/08/07 03:02:33;;;;;;;1.60;1.50;;;13.40;98.80;;;;;;5000075;28;20467;-92
2022/08/07 03:05:02;;;;;;;1.90;1.70;;;13.40;98.90;;;;;;4999984;28;20465;-92
2022/08/07 03:07:30;;;;;;;1.60;1.50;;;13.40;99.30;;;;;;5000244;28;20482;-91
2022/08/07 03:09:57;;;;;;;1.83;1.70;;;13.30;99.20;;;;;;5000103;28;20493;-91
2022/08/07 03:12:25;;;;;;;1.90;1.67;;;13.30;99.20;;;;;;5000501;28;20474;-92
2022/08/07 03:14:55;;;;;;;1.47;1.37;;;13.20;99.20;;;;;;4999655;28;20462;-93
2022/08/07 03:17:22;;;;;;;2.27;1.80;;;13.20;99.20;;;;;;5001146;28;20483;-91
2022/08/07 03:19:49;;;;;;;1.93;1.33;;;13.20;99.50;;;;;;5000218;28;20485;-91
2022/08/07 03:22:18;;;;;;;2.50;1.53;;;13.20;99.60;;;;;;5000366;28;20514;-92
2022/08/07 03:24:45;;;;;;;1.67;1.40;;;13.20;99.50;;;;;;5000051;28;20463;-91
2022/08/07 03:27:13;;;;;;;1.70;1.60;;;13.20;99.60;;;;;;5000227;28;20486;-91
2022/08/07 03:29:42;;;;;;;1.77;1.67;;;13.20;99.60;;;;;;5001766;28;20471;-92
2022/08/07 03:32:11;;;;;;;1.50;1.37;;;13.10;99.70;;;;;;5004074;28;20508;-91
2022/08/07 03:34:40;;;;;;;1.60;1.50;;;13.10;99.60;;;;;;5000805;28;20475;-91
2022/08/07 03:37:09;;;;;;;1.70;1.30;;;13.10;99.90;;;;;;5000757;28;20486;-92
2022/08/07 03:39:39;;;;;;;1.40;1.30;;;13.10;99.80;;;;;;5000271;28;20876;-92
2022/08/07 03:42:06;;;;;;;1.60;1.50;;;13.10;99.80;;;;;;5000606;28;20459;-92
2022/08/07 03:44:35;;;;;;;2.80;1.67;;;13.10;99.90;;;;;;4999842;28;20482;-91
2022/08/07 03:47:04;;;;;;;1.93;1.40;;;13.10;99.80;;;;;;5002019;28;20549;-91
2022/08/07 03:49:31;;;;;;;1.47;1.37;;;13.10;99.90;;;;;;5000004;28;20990;-92
2022/08/07 03:51:59;;;;;;;1.60;1.50;;;13.00;99.90;;;;;;5005020;28;20479;-91
2022/08/07 03:54:25;;;;;;;2.00;1.37;;;13.00;99.90;;;;;;5002495;28;20546;-92
2022/08/07 03:56:55;;;;;;;1.80;1.70;;;13.00;99.90;;;;;;4999666;28;20836;-91
2022/08/07 03:59:22;;;;;;;1.73;1.23;;;12.90;99.90;;;;;;4999673;28;20517;-91
2022/08/07 04:01:49;;;;;;;1.70;1.60;;;12.90;99.90;;;;;;4999525;28;20850;-91
2022/08/07 04:04:17;;;;;;;1.53;1.43;;;12.90;99.90;;;;;;4999751;28;20843;-92
2022/08/07 04:06:44;;;;;;;3.90;1.73;;;12.90;99.90;;;;;;4999740;28;20483;-91
2022/08/07 04:09:12;;;;;;;1.67;1.50;;;12.90;99.90;;;;;;4999329;28;20466;-91
2022/08/07 04:11:40;;;;;;;1.40;1.30;;;12.90;99.90;;;;;;4999304;28;20493;-91
2022/08/07 04:14:09;;;;;;;1.70;1.50;;;12.90;99.90;;;;;;4999149;28;20470;-92
2022/08/07 04:16:36;;;;;;;1.60;1.50;;;12.90;99.90;;;;;;5000398;28;20513;-91
2022/08/07 04:19:04;;;;;;;1.47;1.30;;;12.80;99.90;;;;;;5000583;28;20458;-91
2022/08/07 04:21:31;;;;;;;1.43;1.33;;;12.90;99.90;;;;;;5001564;28;20459;-91
2022/08/07 04:23:58;;;;;;;2.43;1.70;;;12.90;99.90;;;;;;5000629;28;20522;-91
2022/08/07 04:26:25;;;;;;;1.30;1.20;;;12.90;99.90;;;;;;5003098;28;20474;-90
2022/08/07 04:28:52;;;;;;;1.60;1.50;;;12.90;99.90;;;;;;5013652;28;20467;-91
2022/08/07 04:31:23;;;;;;;1.90;1.50;;;12.90;99.90;;;;;;5001215;28;21026;-91
2022/08/07 04:33:51;;;;;;;1.40;1.30;;;12.90;99.90;;;;;;5000116;28;20466;-90
2022/08/07 04:36:18;;;;;;;1.60;1.50;;;12.90;99.90;;;;;;5001576;28;20478;-91
2022/08/07 04:38:44;;;;;;;2.00;1.80;;;13.00;99.90;;;;;;5000904;28;20462;-91
2022/08/07 04:41:11;;;;;;;1.80;1.70;;;13.00;99.90;;;;;;5000046;28;20467;-91
2022/08/07 04:43:39;;;;;;;1.50;1.40;;;13.00;99.90;;;;;;4999254;28;20518;-91
2022/08/07 04:46:10;;;;;;;1.57;1.40;;;13.00;99.90;;;;;;5000116;28;20462;-90
2022/08/07 04:48:46;;;;;;;1.57;1.47;;;13.00;99.90;;;;;;4999421;28;20489;-91
2022/08/07 04:51:20;;;;;;;1.30;1.20;;;13.00;99.90;;;;;;5000381;28;20467;-91
2022/08/07 04:53:57;;;;;;;1.90;1.80;;;13.00;99.90;;;;;;5000417;28;20462;-91
2022/08/07 04:56:29;;;;;;;1.47;1.37;;;13.00;99.90;;;;;;5000642;28;20458;-90
2022/08/07 04:59:05;;;;;;;1.50;1.40;;;13.10;99.90;;;;;;5002541;28;20459;-91
2022/08/07 05:01:40;;;;;;;1.80;1.70;;;13.10;99.90;;;;;;5002847;28;20459;-91
2022/08/07 05:04:12;;;;;;;2.00;1.80;;;13.20;99.90;;;;;;5004364;28;20470;-91
2022/08/07 05:06:46;;;;;;;1.80;1.70;;;13.20;99.90;;;;;;5003686;28;20498;-90
2022/08/07 05:09:22;;;;;;;1.77;1.67;;;13.20;99.90;;;;;;5001784;28;20435;-90
2022/08/07 05:11:52;;;;;;;1.77;1.43;;;13.30;99.90;;;;;;5005666;28;20493;-90
2022/08/07 05:14:23;;;;;;;1.60;1.50;;;13.40;99.90;;;;;;5013856;28;20527;-90
2022/08/07 05:16:53;;;;;;;2.00;1.80;;;13.40;99.90;;;;;;5007844;28;20482;-90
2022/08/07 05:19:24;;;;;;;1.80;1.70;;;13.60;99.90;;;;;;5009870;28;20551;-90
2022/08/07 05:21:55;;;;;;;1.67;1.57;;;13.70;99.90;;;;;;4999112;28;20481;-91
2022/08/07 05:24:24;;;;;;;1.57;1.47;;;13.80;99.90;;;;;;4998533;28;20473;-90
2022/08/07 05:27:15;;;;;;;1.87;1.53;;;13.90;99.90;;;;;;5003774;28;20525;-92
2022/08/07 05:29:43;;;;;;;2.17;1.53;;;14.00;99.90;;;;;;5011552;22;20514;-68
2022/08/07 05:32:11;;;;;;;1.87;1.60;;;14.20;99.90;;;;;;4990840;28;21048;-68
2022/08/07 05:34:41;;;;;;;2.00;1.90;;;14.40;99.90;;;;;;4989890;28;20473;-67
2022/08/07 05:37:09;;;;;;;2.40;2.03;;;14.50;99.90;;;;;;4991180;28;20487;-68
2022/08/07 05:39:36;;;;;;;2.53;2.33;;;14.60;99.90;;;;;;4990854;28;20470;-66
2022/08/07 05:42:04;;;;;;;1.60;1.40;;;14.70;99.90;;;;;;4990743;28;20497;-68
2022/08/07 05:44:35;;;;;;;2.17;1.63;;;14.70;99.90;;;;;;4990336;28;20521;-68
2022/08/07 05:47:03;;;;;;;1.90;1.77;;;14.80;99.90;;;;;;4990717;28;20490;-68
2022/08/07 05:49:30;;;;;;;1.70;1.60;;;14.90;99.90;;;;;;4990848;28;20565;-68
2022/08/07 05:51:58;;;;;;;1.73;1.63;;;15.00;99.90;;;;;;4990858;28;20498;-67
2022/08/07 05:54:25;;;;;;;1.90;1.80;;;15.10;99.90;;;;;;4987974;28;20466;-67
2022/08/07 05:56:53;;;;;;;1.93;1.63;;;15.20;99.90;;;;;;4978804;28;20491;-68
2022/08/07 05:59:22;;;;;;;2.40;1.77;;;15.40;99.90;;;;;;4976534;28;20463;-67
2022/08/07 06:01:49;;;;;;;2.70;2.20;;;15.40;99.90;;;;;;4971232;28;20481;-66
2022/08/07 06:04:19;;;;;;;1.70;1.60;;;15.50;99.90;;;;;;4970416;28;20526;-68
2022/08/07 06:06:46;;;;;;;2.13;1.90;;;15.60;99.90;;;;;;4971274;28;20484;-67
2022/08/07 06:09:15;;;;;;;3.40;1.90;;;15.70;99.90;;;;;;4971449;28;20553;-68
2022/08/07 06:11:42;;;;;;;2.33;1.90;;;15.80;99.90;;;;;;4970766;28;20491;-66
2022/08/07 06:14:08;;;;;;;2.03;1.87;;;15.80;99.90;;;;;;4970796;28;20522;-67
2022/08/07 06:16:38;;;;;;;2.30;2.10;;;15.90;99.90;;;;;;4970673;28;20483;-68
2022/08/07 06:19:05;;;;;;;2.33;2.00;;;16.00;99.90;;;;;;4971258;28;20464;-67
2022/08/07 06:21:32;;;;;;;4.10;3.70;;;16.10;99.90;;;;;;4974121;28;20954;-68
2022/08/07 06:23:59;;;;;;;3.00;2.80;;;16.20;99.90;;;;;;4974438;28;20908;-68
2022/08/07 06:26:27;;;;;;;3.10;2.80;;;16.30;99.90;;;;;;4975032;28;20488;-68
2022/08/07 06:28:56;;;;;;;3.33;3.03;;;16.40;99.90;;;;;;4974514;28;20839;-68
2022/08/07 06:31:24;;;;;;;4.20;3.27;;;16.60;99.90;;;;;;4974923;28;21041;-67
2022/08/07 06:33:51;;;;;;;3.70;3.40;;;16.70;99.90;;;;;;4973862;28;20925;-68
2022/08/07 06:36:18;;;;;;;3.37;3.10;;;16.80;99.90;;;;;;4975050;28;20746;-68
2022/08/07 06:38:44;;;;;;;5.10;3.53;;;16.90;99.90;;;;;;4974968;28;20490;-68
2022/08/07 06:41:17;;;;;;;3.43;3.17;;;17.10;99.90;;;;;;4974868;28;20503;-69
2022/08/07 06:43:46;;;;;;;3.40;3.13;;;17.20;99.90;;;;;;4974513;28;21182;-67
2022/08/07 06:46:15;;;;;;;3.37;3.03;;;17.30;99.90;;;;;;4975095;28;20857;-69
2022/08/07 06:48:42;;;;;;;3.73;3.43;;;17.40;99.90;;;;;;4975975;28;20474;-69
2022/08/07 06:51:14;;;;;;;3.60;3.30;;;17.40;99.90;;;;;;4975647;28;20951;-68
2022/08/07 06:53:41;;;;;;;4.17;3.70;;;17.50;99.90;;;;;;4974916;28;20834;-68
2022/08/07 06:56:10;;;;;;;4.70;4.10;;;17.60;99.90;;;;;;4976388;28;21300;-69
2022/08/07 06:58:39;;;;;;;3.30;3.00;;;17.70;99.90;;;;;;4974610;28;20545;-69
2022/08/07 07:01:10;;;;;;;2.70;2.50;;;17.80;99.90;;;;;;4974630;28;20526;-68
2022/08/07 07:03:39;;;;;;;2.50;2.20;;;17.90;99.90;;;;;;4974083;28;20471;-68
2022/08/07 07:06:07;;;;;;;2.70;2.50;;;18.00;99.90;;;;;;4975078;28;20900;-68
2022/08/07 07:08:34;;;;;;;2.63;2.43;;;18.00;99.90;;;;;;4986313;28;20493;-68
2022/08/07 07:11:02;;;;;;;2.70;2.50;;;18.20;99.90;;;;;;5013501;28;20466;-69
2022/08/07 07:13:34;;;;;;;3.23;2.47;;;18.30;99.90;;;;;;5013615;28;20866;-71
2022/08/07 07:16:06;;;;;;;2.33;2.13;;;18.30;99.90;;;;;;4992411;28;20510;-70
2022/08/07 07:18:41;;;;;;;2.60;2.40;;;18.40;99.90;;;;;;4991890;28;20573;-66
2022/08/07 07:21:15;;;;;;;3.13;2.60;;;18.50;99.90;;;;;;4991856;28;20466;-68
2022/08/07 07:23:42;;;;;;;2.03;1.83;;;18.60;99.90;;;;;;4992775;28;20517;-68
2022/08/07 07:26:13;;;;;;;2.40;2.20;;;18.70;99.90;;;;;;4992980;28;20482;-66
2022/08/07 07:28:48;;;;;;;2.30;2.10;;;18.70;99.90;;;;;;4992273;28;20975;-67
2022/08/07 07:31:19;;;;;;;4.70;1.93;;;18.80;99.90;;;;;;4993174;28;20502;-68
2022/08/07 07:33:52;;;;;;;2.37;2.17;;;18.90;99.90;;;;;;4991373;28;20462;-68
2022/08/07 07:36:20;;;;;;;2.47;2.27;;;18.80;99.90;;;;;;4992598;28;20841;-68
2022/08/07 07:38:47;;;;;;;2.23;1.93;;;18.90;99.90;;;;;;4992370;28;20980;-68
2022/08/07 07:41:16;;;;;;;2.00;1.90;;;19.00;99.90;;;;;;4992682;28;20466;-67
2022/08/07 07:43:45;;;;;;;2.67;2.23;;;19.10;99.90;;;;;;4989106;28;20466;-67
2022/08/07 07:46:14;;;;;;;2.17;1.97;;;19.20;99.90;;;;;;4990288;28;20487;-68
2022/08/07 07:48:42;;;;;;;1.57;1.47;;;19.20;99.30;;;;;;4991691;28;21209;-67
2022/08/07 07:51:11;;;;;;;1.70;1.50;;;19.30;99.80;;;;;;4992852;28;20467;-69
2022/08/07 07:53:41;;;;;;;1.73;1.63;;;19.40;98.60;;;;;;4991526;28;21037;-68
2022/08/07 07:56:10;;;;;;;1.90;1.80;;;19.50;98.70;;;;;;4992459;28;20498;-68
2022/08/07 07:58:39;;;;;;;1.97;1.70;;;19.60;98.20;;;;;;4991947;28;20474;-67
2022/08/07 08:01:07;;;;;;;2.00;1.80;;;19.70;96.90;;;;;;4990526;28;20470;-69
2022/08/07 08:03:37;;;;;;;3.50;2.17;;;19.70;96.80;;;;;;4988016;28;20521;-68
2022/08/07 08:06:06;;;;;;;1.40;1.30;;;19.80;96.90;;;;;;4990761;28;20489;-69
2022/08/07 08:08:36;;;;;;;1.40;1.20;;;19.90;96.00;;;;;;4991545;28;20498;-68
2022/08/07 08:11:04;;;;;;;1.50;1.40;;;19.90;95.60;;;;;;4991948;28;20537;-68
2022/08/07 08:13:32;;;;;;;1.73;1.63;;;20.10;96.10;;;;;;4991460;28;20581;-68
2022/08/07 08:16:02;;;;;;;1.60;1.50;;;20.20;95.40;;;;;;4983420;28;20479;-68
2022/08/07 08:18:29;;;;;;;1.70;1.60;;;20.30;95.50;;;;;;4980344;28;20495;-67
2022/08/07 08:21:01;;;;;;;1.90;1.60;;;20.40;96.20;;;;;;4982347;28;20466;-68
2022/08/07 08:29:03;;;;;;;1.97;1.87;;;20.80;96.50;;;;;;4982510;28;20595;-69
2022/08/07 08:31:34;;;;;;;1.70;1.50;;;20.90;95.80;;;;;;4980556;28;20523;-69
2022/08/07 08:34:04;;;;;;;1.30;1.20;;;21.00;95.30;;;;;;4980819;28;20454;-69
2022/08/07 08:36:33;;;;;;;1.70;1.60;;;21.20;96.10;;;;;;4982963;28;20997;-68
2022/08/07 08:39:02;;;;;;;1.70;1.50;;;21.20;95.40;;;;;;4982680;28;20841;-69
2022/08/07 08:41:41;;;;;;;1.90;1.70;;;21.30;95.80;;;;;;4980552;28;20841;-69
2022/08/07 08:44:15;;;;;;;2.03;1.73;;;21.40;96.20;;;;;;4979749;28;20492;-69
2022/08/07 08:46:47;;;;;;;1.63;1.53;;;21.50;95.60;;;;;;4971325;28;20491;-68
2022/08/07 08:49:20;;;;;;;2.00;1.80;;;21.50;96.50;;;;;;4972231;28;20558;-67
2022/08/07 08:51:56;;;;;;;4.13;1.63;;;21.60;95.90;;;;;;4972375;28;20559;-67
2022/08/07 08:54:28;;;;;;;2.50;1.40;;;21.80;95.80;;;;;;4970989;28;20483;-67
2022/08/07 08:56:59;;;;;;;2.00;1.80;;;21.90;96.10;;;;;;4971728;28;20494;-68
2022/08/07 08:59:34;;;;;;;5.83;1.90;;;22.10;96.10;;;;;;4971046;28;20975;-67
2022/08/07 09:02:12;;;;;;;3.10;1.80;;;22.20;95.60;;;;;;4972442;28;20870;-66
2022/08/07 09:04:46;;;;;;;1.80;1.50;;;22.30;96.20;;;;;;4971454;28;20468;-68
2022/08/07 09:07:17;;;;;;;1.73;1.47;;;22.40;95.20;;;;;;4971881;28;21003;-68
2022/08/07 09:09:59;;;;;;;1.60;1.50;;;22.50;94.50;;;;;;4971955;28;20495;-67
2022/08/07 09:12:51;;;;;;;1.10;1.00;;;22.40;94.20;;;;;;4972474;28;20492;-68
2022/08/07 09:15:33;;;;;;;1.67;1.57;;;22.40;95.00;;;;;;4970802;28;20556;-68
2022/08/07 09:18:20;;;;;;;1.53;1.43;;;22.50;95.00;;;;;;4971024;28;20486;-68
2022/08/07 09:20:57;;;;;;;1.80;1.70;;;22.60;95.00;;;;;;4970754;28;20475;-67
2022/08/07 09:23:32;;;;;;;1.60;1.47;;;22.70;95.90;;;;;;4970240;28;20543;-67
2022/08/07 09:26:14;;;;;;;2.37;1.63;;;22.90;94.90;;;;;;4970333;28;20479;-68
2022/08/07 09:28:44;;;;;;;1.40;1.30;;;23.00;94.00;;;;;;4970754;28;20755;-68
2022/08/07 09:31:18;;;;;;;2.47;1.50;;;23.10;93.50;;;;;;4971469;28;20525;-68
2022/08/07 09:34:07;;;;;;;2.17;1.30;;;23.20;91.80;;;;;;4969883;28;20499;-67
2022/08/07 09:36:39;;;;;;;1.40;1.30;;;23.20;92.50;;;;;;4984754;28;21031;-68
2022/08/07 09:39:23;;;;;;;1.40;1.30;;;23.40;90.50;;;;;;4988705;28;20468;-67
2022/08/07 09:42:00;;;;;;;1.80;1.70;;;23.60;90.30;;;;;;4986900;28;20550;-67
2022/08/07 09:44:41;;;;;;;1.57;1.10;;;23.60;91.30;;;;;;4981186;28;21052;-69
2022/08/07 09:47:15;;;;;;;1.47;1.37;;;23.70;91.10;;;;;;4986198;28;20490;-69
2022/08/07 09:49:52;;;;;;;1.30;1.20;;;23.90;90.00;;;;;;4988757;28;20495;-68
2022/08/07 09:52:25;;;;;;;2.23;1.30;;;24.00;91.40;;;;;;4988278;28;20853;-67
2022/08/07 09:54:57;;;;;;;1.70;1.50;;;24.00;90.20;;;;;;4989664;28;20470;-67
2022/08/07 09:57:49;;;;;;;1.20;1.10;;;24.10;90.50;;;;;;4989861;28;20488;-68
2022/08/07 10:00:21;;;;;;;1.30;1.20;;;24.20;91.60;;;;;;4988754;28;20850;-68
2022/08/07 10:03:26;;;;;;;1.60;1.40;;;24.40;91.80;;;;;;4989514;28;20467;-69
2022/08/07 10:06:24;;;;;;;1.60;1.00;;;24.40;90.40;;;;;;4989468;28;20854;-68
2022/08/07 10:09:21;;;;;;;1.50;1.27;;;24.50;91.10;;;;;;4990567;28;20480;-69
2022/08/07 10:12:13;;;;;;;1.30;1.03;;;24.60;90.20;;;;;;4991527;28;20478;-68
2022/08/07 10:15:00;;;;;;;1.20;1.10;;;24.70;90.90;;;;;;4991125;28;20505;-69
2022/08/07 10:17:48;;;;;;;1.40;1.30;;;24.80;90.50;;;;;;4991122;28;20485;-69
2022/08/07 10:20:22;;;;;;;1.30;1.20;;;24.90;90.10;;;;;;4991142;28;20975;-69
2022/08/07 10:23:10;;;;;;;8.23;1.37;;;24.90;87.70;;;;;;4991216;28;20980;-69
2022/08/07 10:25:51;;;;;;;1.20;1.10;;;25.00;85.90;;;;;;4987292;28;20484;-68
2022/08/07 10:28:37;;;;;;;1.20;1.10;;;25.00;87.50;;;;;;4988906;28;20461;-68
2022/08/07 10:31:19;;;;;;;1.83;1.00;;;25.10;85.40;;;;;;4989115;28;20473;-68
2022/08/07 10:34:04;;;;;;;1.10;1.00;;;25.00;84.60;;;;;;4989431;28;20487;-68
2022/08/07 10:36:43;;;;;;;1.00;0.80;;;25.00;86.40;;;;;;5041444;23;20487;-93
2022/08/07 10:39:25;;;;;;;3.20;1.00;;;25.10;83.90;;;;;;5048310;28;20540;-95
2022/08/07 10:41:57;;;;;;;1.30;1.20;;;25.20;87.60;;;;;;5049779;28;20464;-95
2022/08/07 10:44:34;;;;;;;1.63;1.00;;;25.20;82.90;;;;;;5047536;28;20479;-94
2022/08/07 10:47:12;;;;;;;1.20;1.00;;;25.20;86.00;;;;;;5039641;28;20475;-93
2022/08/07 10:49:48;;;;;;;1.10;1.00;;;25.30;84.60;;;;;;5037813;28;20491;-94
2022/08/07 10:52:34;;;;;;;2.03;1.00;;;25.40;81.70;;;;;;5037067;28;20467;-94
2022/08/07 10:55:11;;;;;;;1.80;1.07;;;25.40;79.60;;;;;;5036760;28;20467;-92
2022/08/07 10:57:45;;;;;;;1.20;1.10;;;25.50;81.70;;;;;;5039826;28;20876;-94
2022/08/07 11:00:15;;;;;;;1.30;1.20;;;25.50;84.50;;;;;;5038732;28;20480;-93
2022/08/07 11:02:50;;;;;;;1.03;0.93;;;25.60;84.50;;;;;;5040044;28;20503;-95
2022/08/07 11:05:32;;;;;;;1.20;1.10;;;25.80;86.50;;;;;;5040283;28;20463;-94
2022/08/07 11:08:09;;;;;;;1.30;1.20;;;26.00;87.00;;;;;;5039119;28;20469;-95
2022/08/07 11:10:42;;;;;;;1.10;1.00;;;26.10;81.40;;;;;;5042075;28;20547;-94
2022/08/07 11:13:15;;;;;;;1.00;0.80;;;26.00;77.50;;;;;;5042816;28;20476;-94
2022/08/07 11:15:45;;;;;;;1.57;1.10;;;25.70;78.70;;;;;;5042717;28;20485;-94
2022/08/07 11:18:17;;;;;;;2.07;1.20;;;25.50;80.70;;;;;;5043554;28;20469;-96
2022/08/07 11:21:01;;;;;;;1.07;0.97;;;25.60;79.90;;;;;;5048169;28;20467;-94
2022/08/07 11:23:42;;;;;;;1.13;0.90;;;25.70;84.80;;;;;;5047073;28;20467;-95
2022/08/07 11:26:20;;;;;;;1.20;1.10;;;25.80;83.40;;;;;;5052057;28;20477;-94
2022/08/07 11:28:53;;;;;;;1.50;1.20;;;26.00;83.50;;;;;;5045207;28;20464;-94
2022/08/07 11:31:29;;;;;;;1.40;1.30;;;26.10;78.30;;;;;;5044767;28;20480;-96
2022/08/07 11:34:07;;;;;;;1.30;1.20;;;26.10;81.70;;;;;;5045015;28;20476;-95
2022/08/07 11:36:59;;;;;;;1.40;1.30;;;26.30;86.30;;;;;;5048192;28;20496;-96
2022/08/07 11:39:40;;;;;;;1.90;1.17;;;26.40;85.40;;;;;;5048349;28;20493;-93
2022/08/07 11:42:14;;;;;;;2.40;1.20;;;26.60;78.50;;;;;;5049943;28;20461;-93
2022/08/07 11:44:55;;;;;;;1.10;1.00;;;26.70;84.20;;;;;;5045146;28;20460;-93
2022/08/07 11:47:55;;;;;;;1.13;1.03;;;26.80;83.70;;;;;;5046862;28;20484;-93
2022/08/07 11:50:33;;;;;;;1.53;1.10;;;27.00;83.60;;;;;;5047126;28;20579;-94
2022/08/07 11:56:28;;;;;;;1.23;1.10;;;27.20;83.70;;;;;;5044127;28;20481;-94
2022/08/07 11:59:08;;;;;;;1.10;1.00;;;27.30;82.90;;;;;;5046431;28;20469;-95
2022/08/07 12:01:49;;;;;;;1.20;1.10;;;27.40;83.70;;;;;;5045288;28;20963;-94
2022/08/07 12:04:50;;;;;;;1.20;1.10;;;27.40;83.60;;;;;;5048489;28;20440;-96
2022/08/07 12:07:25;;;;;;;1.37;1.27;;;27.40;79.50;;;;;;5031776;28;20511;-95
2022/08/07 12:09:58;;;;;;;2.80;1.10;;;27.50;77.40;;;;;;5045514;28;20495;-94
2022/08/07 12:12:28;;;;;;;1.30;1.13;;;27.50;79.20;;;;;;5051804;28;20512;-96
2022/08/07 12:15:02;;;;;;;1.50;1.00;;;27.50;78.00;;;;;;5055324;28;20481;-96
2022/08/07 12:17:39;;;;;;;1.10;1.00;;;27.50;78.80;;;;;;5057651;28;20445;-96
2022/08/07 12:20:12;;;;;;;1.40;1.30;;;27.50;80.10;;;;;;5057078;28;20469;-96
2022/08/07 12:22:47;;;;;;;1.30;1.20;;;27.60;79.90;;;;;;5056845;28;20757;-96
2022/08/07 12:28:23;;;;;;;1.50;1.20;;;27.60;79.00;;;;;;5056523;28;20452;-95
2022/08/07 12:30:56;;;;;;;1.30;1.20;;;27.60;77.00;;;;;;5056749;28;20468;-95
2022/08/07 12:33:28;;;;;;;1.30;1.20;;;27.60;79.80;;;;;;5056651;28;20545;-96
2022/08/07 12:35:57;;;;;;;1.57;1.10;;;27.60;81.00;;;;;;5055880;28;20469;-95
2022/08/07 12:38:29;;;;;;;1.20;1.10;;;27.70;81.20;;;;;;5057074;28;20525;-96
2022/08/07 12:40:59;;;;;;;1.03;0.93;;;27.70;78.60;;;;;;5047258;28;20465;-94
2022/08/07 12:43:31;;;;;;;1.10;1.00;;;27.80;82.10;;;;;;5046908;28;20465;-93
2022/08/07 12:46:09;;;;;;;1.40;1.30;;;27.90;80.70;;;;;;5052311;28;20483;-93
2022/08/07 12:48:42;;;;;;;1.30;1.20;;;27.80;78.20;;;;;;5051887;28;20492;-94
2022/08/07 12:51:13;;;;;;;1.67;1.10;;;27.90;78.70;;;;;;5049867;28;20449;-94
2022/08/07 12:54:08;;;;;;;1.20;1.00;;;27.90;78.50;;;;;;5045545;28;20461;-94
2022/08/07 12:57:06;;;;;;;2.20;1.23;;;27.90;80.10;;;;;;5049760;28;20477;-93
2022/08/07 12:59:43;;;;;;;1.40;1.30;;;27.80;77.90;;;;;;5042562;28;20916;-94
2022/08/07 13:02:27;;;;;;;1.10;1.00;;;27.80;77.70;;;;;;5029892;22;20697;-69
2022/08/07 13:05:06;;;;;;;3.20;1.27;;;27.80;79.20;;;;;;4985664;28;20466;-69
2022/08/07 13:08:02;;;;;;;1.13;1.03;;;28.00;74.70;;;;;;4972445;28;20542;-68
2022/08/07 13:10:41;;;;;;;1.20;1.10;;;28.10;75.90;;;;;;4932314;28;20882;-68
2022/08/07 13:13:27;;;;;;;1.00;0.90;;;28.10;79.90;;;;;;4966602;28;20478;-68
2022/08/07 13:16:01;;;;;;;1.30;1.20;;;28.10;79.40;;;;;;4967224;28;20499;-68
2022/08/07 13:18:43;;;;;;;4.70;1.50;;;28.20;78.50;;;;;;4965870;28;20463;-67
2022/08/07 13:21:17;;;;;;;1.83;1.20;;;28.20;79.00;;;;;;4965986;28;20471;-68
2022/08/07 13:23:49;;;;;;;1.30;1.17;;;28.40;78.00;;;;;;4966757;28;20892;-68
2022/08/07 13:26:22;;;;;;;1.10;1.00;;;28.30;79.50;;;;;;4965131;28;20910;-67